createdAt,value
2023-05-16T00:00:48.181Z,708.30
2023-05-16T00:03:17.155Z,712.20
2023-05-16T00:05:45.982Z,677.33
2023-05-16T00:08:14.502Z,680.13
2023-05-16T00:10:42.929Z,705.15
2023-05-16T00:13:11.731Z,673.05
2023-05-16T00:15:41.852Z,692.50
2023-05-16T00:18:10.471Z,687.10
2023-05-16T00:20:38.883Z,701.40
2023-05-16T00:23:07.502Z,708.33
2023-05-16T00:25:36.185Z,692.97
2023-05-16T00:28:04.708Z,702.47
2023-05-16T00:30:33.073Z,674.13
2023-05-16T00:33:03.245Z,663.25
2023-05-16T00:35:31.831Z,673.28
2023-05-16T00:38:00.255Z,660.08
2023-05-16T00:40:30.205Z,654.25
2023-05-16T00:42:58.926Z,653.58
2023-05-16T00:45:27.436Z,674.33
2023-05-16T00:47:56.060Z,671.70
2023-05-16T00:50:26.210Z,650.63
2023-05-16T00:52:55.155Z,668.25
2023-05-16T00:55:23.791Z,664.50
2023-05-16T00:57:52.481Z,683.42
2023-05-16T01:00:22.748Z,647.85
2023-05-16T01:02:53.344Z,646.10
2023-05-16T01:05:22.208Z,656.50
2023-05-16T01:07:52.183Z,661.95
2023-05-16T01:10:20.937Z,652.30
2023-05-16T01:12:58.399Z,674.28
2023-05-16T01:15:29.960Z,683.60
2023-05-16T01:18:02.222Z,660.60
2023-05-16T01:20:38.353Z,648.58
2023-05-16T01:23:29.681Z,652.17
2023-05-16T01:25:59.683Z,649.65
2023-05-16T01:28:30.231Z,654.58
2023-05-16T01:30:58.839Z,651.78
2023-05-16T01:33:27.411Z,656.83
2023-05-16T01:36:00.141Z,651.40
2023-05-16T01:38:31.814Z,649.30
2023-05-16T01:41:03.829Z,660.20
2023-05-16T01:43:36.781Z,669.47
2023-05-16T01:46:10.916Z,663.65
2023-05-16T01:48:46.031Z,638.10
2023-05-16T01:51:15.176Z,599.67
2023-05-16T01:53:45.401Z,633.20
2023-05-16T01:56:17.607Z,553.38
2023-05-16T01:58:47.999Z,637.00
2023-05-16T02:01:16.455Z,675.65
2023-05-16T02:03:44.894Z,594.25
2023-05-16T02:06:13.686Z,582.92
2023-05-16T02:08:42.130Z,557.40
2023-05-16T02:11:10.564Z,667.92
2023-05-16T02:13:38.895Z,614.45
2023-05-16T02:16:08.845Z,607.75
2023-05-16T02:18:37.437Z,672.85
2023-05-16T02:21:05.951Z,646.50
2023-05-16T02:23:34.380Z,670.85
2023-05-16T02:26:04.480Z,684.25
2023-05-16T02:28:32.910Z,667.20
2023-05-16T02:31:02.686Z,679.85
2023-05-16T02:33:32.559Z,673.80
2023-05-16T02:36:01.300Z,671.15
2023-05-16T02:38:29.646Z,653.88
2023-05-16T02:40:58.162Z,702.42
2023-05-16T02:43:27.080Z,686.03
2023-05-16T02:45:55.528Z,671.90
2023-05-16T02:48:24.075Z,667.17
2023-05-16T02:50:54.766Z,668.17
2023-05-16T02:53:23.188Z,666.63
2023-05-16T02:55:51.608Z,662.80
2023-05-16T02:58:20.113Z,657.10
2023-05-16T03:00:48.604Z,684.40
2023-05-16T03:03:17.166Z,663.47
2023-05-16T03:05:46.241Z,714.58
2023-05-16T03:08:16.176Z,671.92
2023-05-16T03:10:44.644Z,689.30
2023-05-16T03:13:12.970Z,660.45
2023-05-16T03:15:41.369Z,689.13
2023-05-16T03:18:09.800Z,692.15
2023-05-16T03:20:38.651Z,692.00
2023-05-16T03:23:08.276Z,667.55
2023-05-16T03:25:38.447Z,678.03
2023-05-16T03:28:07.794Z,680.20
2023-05-16T03:30:36.571Z,679.97
2023-05-16T03:33:05.264Z,677.40
2023-05-16T03:35:34.119Z,681.92
2023-05-16T03:38:02.520Z,697.05
2023-05-16T03:40:30.889Z,642.80
2023-05-16T03:43:00.801Z,668.50
2023-05-16T03:45:30.483Z,670.50
2023-05-16T03:47:59.115Z,670.33
2023-05-16T03:50:27.553Z,686.03
2023-05-16T03:52:55.977Z,649.10
2023-05-16T03:55:24.402Z,661.88
2023-05-16T03:57:53.290Z,668.55
2023-05-16T04:00:23.154Z,693.83
2023-05-16T04:02:51.637Z,680.03
2023-05-16T04:05:20.524Z,665.85
2023-05-16T04:07:48.991Z,514.85
2023-05-16T04:10:17.478Z,627.92
2023-05-16T04:12:46.607Z,584.70
2023-05-16T04:15:15.126Z,625.92
2023-05-16T04:17:45.404Z,679.05
2023-05-16T04:20:14.265Z,667.58
2023-05-16T04:22:42.992Z,609.38
2023-05-16T04:25:12.455Z,615.60
2023-05-16T04:27:41.067Z,679.67
2023-05-16T04:30:11.342Z,692.00
2023-05-16T04:32:39.767Z,670.00
2023-05-16T04:35:10.457Z,683.67
2023-05-16T04:37:39.009Z,674.33
2023-05-16T04:40:10.989Z,688.88
2023-05-16T04:42:39.727Z,679.22
2023-05-16T04:45:11.034Z,778.80
2023-05-16T04:47:39.681Z,687.55
2023-05-16T04:50:11.004Z,682.72
2023-05-16T04:52:39.589Z,766.05
2023-05-16T04:55:08.803Z,686.75
2023-05-16T04:57:37.201Z,729.22
2023-05-16T05:00:08.974Z,691.75
2023-05-16T05:02:38.429Z,673.67
2023-05-16T05:05:08.561Z,704.92
2023-05-16T05:07:38.636Z,744.78
2023-05-16T05:10:08.172Z,710.80
2023-05-16T05:12:37.310Z,695.25
2023-05-16T05:15:06.649Z,728.13
2023-05-16T05:17:35.532Z,699.92
2023-05-16T05:20:07.295Z,699.28
2023-05-16T05:22:37.092Z,688.47
2023-05-16T05:25:06.572Z,740.55
2023-05-16T05:27:35.078Z,702.60
2023-05-16T05:30:04.226Z,691.25
2023-05-16T05:32:32.969Z,718.22
2023-05-16T05:35:01.623Z,746.85
2023-05-16T05:37:30.733Z,737.63
2023-05-16T05:40:00.587Z,782.83
2023-05-16T05:42:29.014Z,769.35
2023-05-16T05:44:57.709Z,686.40
2023-05-16T05:47:26.402Z,785.97
2023-05-16T05:49:55.084Z,844.65
2023-05-16T05:52:23.556Z,775.58
2023-05-16T05:54:52.043Z,745.78
2023-05-16T05:57:22.148Z,717.53
2023-05-16T05:59:50.795Z,768.80
2023-05-16T06:02:19.480Z,734.10
2023-05-16T06:04:48.041Z,767.42
2023-05-16T06:07:16.976Z,704.25
2023-05-16T06:09:45.449Z,736.50
2023-05-16T06:12:14.065Z,723.28
2023-05-16T06:14:43.822Z,674.70
2023-05-16T06:17:12.281Z,751.28
2023-05-16T06:19:41.057Z,678.63
2023-05-16T06:22:09.583Z,716.05
2023-05-16T06:24:38.211Z,714.35
2023-05-16T06:27:07.221Z,728.97
2023-05-16T06:29:35.827Z,788.00
2023-05-16T06:32:05.816Z,706.03
2023-05-16T06:34:34.284Z,710.85
2023-05-16T06:37:03.871Z,694.88
2023-05-16T06:39:32.798Z,690.95
2023-05-16T06:42:01.377Z,706.95
2023-05-16T06:44:29.873Z,695.47
2023-05-16T06:46:58.811Z,720.45
2023-05-16T06:49:28.783Z,711.50
2023-05-16T06:51:57.224Z,738.75
2023-05-16T06:54:26.008Z,694.55
2023-05-16T06:56:54.591Z,673.78
2023-05-16T06:59:23.087Z,705.53
2023-05-16T07:01:51.512Z,697.33
2023-05-16T07:04:19.975Z,745.58
2023-05-16T07:06:49.771Z,699.83
2023-05-16T07:09:18.497Z,719.05
2023-05-16T07:11:47.209Z,709.72
2023-05-16T07:14:15.591Z,674.50
2023-05-16T07:16:44.271Z,679.35
2023-05-16T07:19:12.836Z,668.45
2023-05-16T07:21:41.728Z,721.00
2023-05-16T07:24:11.694Z,686.92
2023-05-16T07:26:40.986Z,662.80
2023-05-16T07:29:09.805Z,675.17
2023-05-16T07:31:38.366Z,682.42
2023-05-16T07:34:06.815Z,681.05
2023-05-16T07:36:36.153Z,672.13
2023-05-16T07:39:04.837Z,693.03
2023-05-16T07:41:34.823Z,712.88
2023-05-16T07:44:03.248Z,679.38
2023-05-16T07:46:31.811Z,655.00
2023-05-16T07:49:00.342Z,656.72
2023-05-16T07:51:28.921Z,664.72
2023-05-16T07:53:57.521Z,733.40
2023-05-16T07:56:25.977Z,745.25
2023-05-16T07:58:57.326Z,682.85
2023-05-16T08:01:26.888Z,676.80
2023-05-16T08:03:55.695Z,686.38
2023-05-16T08:06:24.711Z,746.10
2023-05-16T08:08:53.636Z,713.25
2023-05-16T08:11:22.748Z,727.83
2023-05-16T08:13:51.475Z,739.33
2023-05-16T08:16:22.485Z,709.92
2023-05-16T08:18:51.165Z,720.17
2023-05-16T08:21:19.602Z,717.67
2023-05-16T08:23:48.036Z,718.08
2023-05-16T08:26:17.126Z,732.63
2023-05-16T08:28:45.793Z,684.75
2023-05-16T08:31:16.570Z,664.65
2023-05-16T08:33:46.454Z,701.60
2023-05-16T08:36:15.863Z,658.05
2023-05-16T08:38:44.367Z,806.97
2023-05-16T08:41:12.857Z,686.72
2023-05-16T08:43:41.546Z,679.33
2023-05-16T08:46:10.902Z,742.53
2023-05-16T08:48:41.157Z,726.45
2023-05-16T08:51:11.770Z,708.88
2023-05-16T08:53:43.955Z,705.83
2023-05-16T08:56:12.863Z,720.97
2023-05-16T08:58:41.487Z,711.05
2023-05-16T09:01:10.430Z,818.80
2023-05-16T09:03:39.278Z,722.08
2023-05-16T09:06:08.431Z,716.05
2023-05-16T09:08:38.436Z,736.78
2023-05-16T09:11:07.085Z,726.78
2023-05-16T09:13:35.727Z,788.55
2023-05-16T09:16:11.289Z,673.22
2023-05-16T09:18:40.408Z,777.25
2023-05-16T09:21:09.008Z,738.95
2023-05-16T09:23:39.293Z,672.95
2023-05-16T09:26:08.432Z,723.30
2023-05-16T09:28:39.565Z,682.67
2023-05-16T09:31:22.176Z,712.10
2023-05-16T09:33:51.241Z,709.38
2023-05-16T09:36:19.724Z,798.40
2023-05-16T09:38:51.097Z,740.13
2023-05-16T09:41:19.669Z,742.33
2023-05-16T09:43:48.367Z,733.88
2023-05-16T09:46:17.525Z,807.63
2023-05-16T09:48:47.306Z,790.17
2023-05-16T09:51:16.358Z,703.42
2023-05-16T09:53:45.565Z,735.28
2023-05-16T09:56:16.986Z,749.60
2023-05-16T09:58:47.746Z,753.53
2023-05-16T10:01:16.277Z,700.15
2023-05-16T10:03:44.949Z,713.08
2023-05-16T10:06:15.134Z,699.20
2023-05-16T10:08:44.624Z,716.00
2023-05-16T10:11:15.261Z,773.40
2023-05-16T10:13:46.100Z,706.95
2023-05-16T10:16:16.051Z,712.13
2023-05-16T10:18:44.575Z,804.65
2023-05-16T10:21:16.906Z,814.25
2023-05-16T10:23:49.766Z,698.28
2023-05-16T10:26:19.878Z,766.45
2023-05-16T10:28:49.297Z,699.53
2023-05-16T10:31:17.832Z,746.83
2023-05-16T10:33:46.960Z,712.78
2023-05-16T10:36:17.414Z,724.05
2023-05-16T10:38:49.778Z,797.08
2023-05-16T10:41:20.146Z,696.13
2023-05-16T10:43:57.983Z,697.42
2023-05-16T10:46:28.005Z,710.20
2023-05-16T10:48:57.890Z,690.10
2023-05-16T10:51:38.763Z,704.83
2023-05-16T10:54:09.264Z,702.72
2023-05-16T10:56:39.350Z,675.17
2023-05-16T10:59:25.187Z,692.40
2023-05-16T11:01:55.041Z,690.78
2023-05-16T11:04:23.544Z,661.45
2023-05-16T11:06:53.783Z,676.03
2023-05-16T11:09:28.076Z,728.67
2023-05-16T11:14:42.423Z,721.70
2023-05-16T11:17:13.287Z,715.90
2023-05-16T11:19:43.621Z,658.17
2023-05-16T11:22:26.654Z,628.78
2023-05-16T11:24:57.417Z,595.03
2023-05-16T11:27:29.296Z,572.50
2023-05-16T11:30:03.804Z,630.05
2023-05-16T11:32:35.265Z,650.55
2023-05-16T11:35:04.645Z,562.85
2023-05-16T11:37:33.165Z,618.67
2023-05-16T11:40:02.281Z,619.05
2023-05-16T11:42:35.359Z,534.90
2023-05-16T11:45:08.222Z,523.15
2023-05-16T11:47:38.902Z,599.28
2023-05-16T11:50:09.925Z,585.83
2023-05-16T11:52:39.907Z,634.33
2023-05-16T11:55:11.035Z,644.80
2023-05-16T11:57:42.049Z,676.03
2023-05-16T12:00:17.679Z,680.03
2023-05-16T12:02:47.714Z,678.60
2023-05-16T12:05:17.676Z,657.72
2023-05-16T12:07:47.023Z,706.22
2023-05-16T12:10:16.786Z,660.45
2023-05-16T12:12:48.552Z,656.75
2023-05-16T12:15:17.304Z,683.60
2023-05-16T12:17:46.343Z,689.33
2023-05-16T12:20:16.692Z,679.33
2023-05-16T12:22:46.356Z,699.85
2023-05-16T12:25:23.844Z,672.30
2023-05-16T12:27:54.876Z,677.35
2023-05-16T12:30:27.632Z,697.58
2023-05-16T12:32:59.780Z,652.95
2023-05-16T12:35:32.229Z,665.15
2023-05-16T12:38:01.082Z,814.85
2023-05-16T12:40:30.591Z,722.45
2023-05-16T12:43:00.657Z,673.58
2023-05-16T12:45:34.049Z,711.85
2023-05-16T12:48:07.841Z,810.72
2023-05-16T12:50:36.768Z,682.85
2023-05-16T12:53:05.334Z,737.35
2023-05-16T12:55:34.091Z,733.35
2023-05-16T12:58:03.909Z,730.28
2023-05-16T13:00:32.710Z,716.55
2023-05-16T13:03:01.597Z,700.40
2023-05-16T13:05:30.140Z,707.38
2023-05-16T13:07:58.659Z,712.20
2023-05-16T13:10:27.439Z,735.78
2023-05-16T13:12:58.501Z,667.55
2023-05-16T13:15:29.733Z,690.40
2023-05-16T13:17:59.894Z,707.15
2023-05-16T13:20:29.152Z,723.45
2023-05-16T13:22:57.594Z,676.65
2023-05-16T13:25:26.228Z,720.53
2023-05-16T13:27:54.908Z,690.50
2023-05-16T13:30:24.572Z,718.25
2023-05-16T13:32:54.455Z,733.78
2023-05-16T13:35:22.908Z,699.63
2023-05-16T13:37:51.254Z,720.40
2023-05-16T13:40:19.889Z,733.00
2023-05-16T13:42:49.162Z,742.08
2023-05-16T13:45:17.682Z,703.08
2023-05-16T13:47:48.066Z,671.22
2023-05-16T13:50:18.204Z,724.20
2023-05-16T13:52:47.493Z,688.70
2023-05-16T13:55:16.163Z,686.97
2023-05-16T13:57:44.538Z,750.15
2023-05-16T14:02:45.144Z,702.47
2023-05-16T14:05:13.532Z,711.13
2023-05-16T14:07:46.200Z,813.10
2023-05-16T14:10:15.357Z,770.03
2023-05-16T14:12:43.751Z,778.05
2023-05-16T14:15:12.438Z,659.22
2023-05-16T14:17:40.918Z,680.30
2023-05-16T14:20:10.754Z,673.58
2023-05-16T14:22:39.588Z,776.13
2023-05-16T14:25:10.220Z,685.28
2023-05-16T14:27:45.148Z,712.13
2023-05-16T14:30:14.596Z,735.10
2023-05-16T14:32:43.115Z,702.95
2023-05-16T14:35:12.092Z,681.88
2023-05-16T14:37:40.547Z,704.45
2023-05-16T14:40:11.189Z,722.95
2023-05-16T14:42:39.723Z,698.70
2023-05-16T14:45:09.194Z,695.78
2023-05-16T14:47:37.699Z,692.85
2023-05-16T14:50:07.113Z,702.22
2023-05-16T14:52:35.503Z,706.03
2023-05-16T14:55:04.100Z,719.45
2023-05-16T14:57:34.649Z,663.97
2023-05-16T15:00:03.099Z,720.35
2023-05-16T15:02:31.505Z,743.70
2023-05-16T15:05:00.070Z,653.47
2023-05-16T15:07:28.472Z,635.03
2023-05-16T15:09:56.932Z,745.95
2023-05-16T15:12:25.287Z,710.05
2023-05-16T15:14:55.009Z,651.17
2023-05-16T15:17:23.715Z,657.13
2023-05-16T15:19:54.200Z,841.38
2023-05-16T15:22:22.588Z,697.75
2023-05-16T15:24:51.760Z,699.42
2023-05-16T15:27:20.163Z,732.40
2023-05-16T15:29:48.554Z,837.03
2023-05-16T15:32:18.844Z,716.75
2023-05-16T15:34:47.292Z,755.70
2023-05-16T15:37:15.664Z,655.95
2023-05-16T15:39:44.110Z,650.15
2023-05-16T15:42:13.223Z,635.58
2023-05-16T15:44:41.832Z,585.13
2023-05-16T15:47:10.733Z,665.50
2023-05-16T15:49:40.532Z,732.20
2023-05-16T15:52:09.094Z,643.00
2023-05-16T15:54:38.189Z,701.28
2023-05-16T15:57:07.119Z,719.17
2023-05-16T15:59:35.757Z,693.38
2023-05-16T16:02:05.455Z,665.90
2023-05-16T16:04:33.916Z,721.60
2023-05-16T16:07:03.677Z,716.35
2023-05-16T16:09:32.290Z,739.05
2023-05-16T16:12:00.680Z,610.05
2023-05-16T16:14:29.115Z,667.53
2023-05-16T16:16:57.452Z,612.60
2023-05-16T16:19:26.791Z,712.55
2023-05-16T16:21:55.315Z,617.80
2023-05-16T16:24:25.145Z,683.28
2023-05-16T16:26:53.703Z,605.22
2023-05-16T16:29:22.267Z,784.47
2023-05-16T16:31:50.865Z,600.50
2023-05-16T16:34:21.010Z,662.88
2023-05-16T16:36:51.479Z,702.97
2023-05-16T16:39:19.944Z,712.45
2023-05-16T16:41:49.796Z,628.42
2023-05-16T16:44:18.246Z,697.80
2023-05-16T16:46:46.674Z,631.25
2023-05-16T16:49:15.247Z,655.33
2023-05-16T16:51:43.680Z,628.92
2023-05-16T16:54:12.309Z,552.15
2023-05-16T16:56:40.684Z,558.22
2023-05-16T16:59:11.614Z,647.63
2023-05-16T17:01:40.075Z,629.38
2023-05-16T17:04:08.570Z,584.60
2023-05-16T17:06:37.033Z,584.90
2023-05-16T17:09:06.959Z,592.58
2023-05-16T17:11:36.424Z,668.05
2023-05-16T17:14:06.189Z,570.38
2023-05-16T17:16:36.408Z,633.10
2023-05-16T17:19:05.433Z,621.92
2023-05-16T17:21:34.639Z,576.80
2023-05-16T17:24:06.507Z,598.10
2023-05-16T17:26:36.166Z,596.90
2023-05-16T17:30:13.187Z,597.63
2023-05-16T17:32:43.288Z,611.65
2023-05-16T17:35:11.800Z,578.22
2023-05-16T17:37:41.444Z,599.63
2023-05-16T17:40:16.601Z,545.30
2023-05-16T17:46:29.286Z,707.80
2023-05-16T17:48:59.682Z,567.08
2023-05-16T17:51:28.247Z,598.10
2023-05-16T17:54:00.662Z,615.28
2023-05-16T17:56:29.093Z,615.42
2023-05-16T17:58:57.530Z,662.15
2023-05-16T18:01:26.109Z,733.22
2023-05-16T18:03:54.857Z,555.15
2023-05-16T18:06:24.987Z,574.42
2023-05-16T18:08:54.189Z,564.97
2023-05-16T18:11:34.720Z,578.35
2023-05-16T18:14:12.796Z,554.22
2023-05-16T18:16:41.659Z,596.03
2023-05-16T18:19:10.520Z,599.55
2023-05-16T18:21:41.050Z,609.30
2023-05-16T18:24:11.531Z,625.83
2023-05-16T18:26:47.210Z,560.70
2023-05-16T18:29:18.056Z,633.63
2023-05-16T18:31:46.774Z,550.67
2023-05-16T18:34:15.243Z,672.38
2023-05-16T18:36:45.197Z,671.58
2023-05-16T18:39:13.643Z,575.47
2023-05-16T18:41:46.583Z,603.70
2023-05-16T18:44:16.945Z,568.92
2023-05-16T18:46:46.660Z,579.15
2023-05-16T18:49:15.137Z,548.13
2023-05-16T18:51:45.634Z,634.70
2023-05-16T18:54:14.058Z,516.30
2023-05-16T18:56:42.920Z,500.90
2023-05-16T18:59:11.385Z,521.72
2023-05-16T19:01:42.191Z,544.22
2023-05-16T19:04:10.927Z,493.02
2023-05-16T19:06:39.590Z,478.88
2023-05-16T19:09:09.431Z,486.40
2023-05-16T19:11:38.266Z,495.35
2023-05-16T19:14:07.541Z,504.83
2023-05-16T19:16:36.273Z,511.00
2023-05-16T19:19:05.815Z,518.63
2023-05-16T19:21:34.526Z,551.83
2023-05-16T19:24:03.574Z,521.35
2023-05-16T19:26:33.498Z,477.58
2023-05-16T19:29:04.337Z,462.98
2023-05-16T19:31:32.805Z,466.90
2023-05-16T19:34:01.415Z,497.58
2023-05-16T19:36:29.952Z,514.47
2023-05-16T19:38:58.424Z,570.83
2023-05-16T19:41:27.598Z,534.90
2023-05-16T19:43:57.954Z,465.58
2023-05-16T19:46:26.452Z,508.08
2023-05-16T19:48:55.012Z,502.98
2023-05-16T19:51:37.156Z,602.38
2023-05-16T19:54:09.552Z,477.42
2023-05-16T19:56:38.206Z,511.92
2023-05-16T19:59:08.241Z,487.70
2023-05-16T20:01:36.742Z,470.40
2023-05-16T20:04:06.318Z,470.90
2023-05-16T20:06:42.037Z,471.05
2023-05-16T20:09:11.237Z,465.15
2023-05-16T20:11:39.707Z,449.15
2023-05-16T20:14:09.492Z,507.33
2023-05-16T20:16:37.977Z,428.80
2023-05-16T20:19:07.113Z,515.55
2023-05-16T20:21:35.818Z,460.83
2023-05-16T20:24:05.877Z,497.88
2023-05-16T20:26:34.280Z,438.33
2023-05-16T20:29:03.732Z,458.50
2023-05-16T20:31:33.753Z,591.70
2023-05-16T20:34:02.243Z,472.83
2023-05-16T20:36:30.912Z,427.25
2023-05-16T20:38:59.363Z,471.17
2023-05-16T20:41:27.756Z,445.40
2023-05-16T20:43:56.263Z,466.60
2023-05-16T20:46:24.635Z,475.15
2023-05-16T20:48:54.456Z,498.15
2023-05-16T20:51:22.966Z,447.45
2023-05-16T20:53:51.372Z,459.25
2023-05-16T20:56:19.876Z,566.85
2023-05-16T20:58:48.691Z,469.85
2023-05-16T21:01:17.124Z,437.08
2023-05-16T21:03:45.683Z,477.42
2023-05-16T21:06:15.650Z,494.35
2023-05-16T21:08:44.174Z,441.50
2023-05-16T21:11:12.726Z,469.13
2023-05-16T21:13:41.198Z,427.88
2023-05-16T21:16:10.082Z,446.80
2023-05-16T21:18:38.858Z,413.00
2023-05-16T21:21:08.035Z,449.70
2023-05-16T21:23:37.937Z,440.98
2023-05-16T21:26:06.582Z,424.33
2023-05-16T21:28:42.659Z,440.98
2023-05-16T21:31:19.821Z,455.05
2023-05-16T21:33:51.909Z,466.88
2023-05-16T21:36:20.800Z,428.10
2023-05-16T21:38:50.790Z,463.60
2023-05-16T21:41:19.163Z,440.25
2023-05-16T21:43:47.707Z,445.35
2023-05-16T21:46:16.169Z,442.00
2023-05-16T21:48:44.727Z,461.63
2023-05-16T21:51:13.432Z,458.25
2023-05-16T21:53:41.830Z,451.60
2023-05-16T21:56:11.626Z,408.50
2023-05-16T21:58:42.362Z,428.05
2023-05-16T22:01:11.670Z,423.88
2023-05-16T22:03:40.367Z,364.58
2023-05-16T22:06:08.966Z,416.55
2023-05-16T22:08:37.419Z,436.13
2023-05-16T22:11:06.097Z,396.33
2023-05-16T22:13:35.970Z,406.08
2023-05-16T22:16:05.439Z,439.63
2023-05-16T22:18:34.299Z,435.13
2023-05-16T22:21:02.955Z,443.25
2023-05-16T22:23:31.739Z,449.58
2023-05-16T22:26:00.151Z,388.75
2023-05-16T22:28:28.632Z,408.73
2023-05-16T22:30:58.567Z,381.30
2023-05-16T22:33:27.218Z,388.92
2023-05-16T22:35:55.713Z,374.33
2023-05-16T22:38:24.317Z,393.08
2023-05-16T22:40:52.792Z,424.25
2023-05-16T22:43:21.174Z,352.88
2023-05-16T22:45:51.368Z,364.83
2023-05-16T22:48:21.604Z,365.42
2023-05-16T22:50:50.058Z,435.92
2023-05-16T22:53:18.654Z,405.08
2023-05-16T22:55:47.168Z,427.00
2023-05-16T22:58:15.576Z,429.67
2023-05-16T23:00:44.061Z,417.33
2023-05-16T23:03:12.637Z,351.73
2023-05-16T23:05:42.479Z,407.92
2023-05-16T23:08:10.889Z,394.35
2023-05-16T23:10:39.302Z,441.48
2023-05-16T23:13:07.743Z,404.52
2023-05-16T23:15:36.247Z,430.00
2023-05-16T23:18:05.178Z,367.98
2023-05-16T23:20:33.727Z,407.73
2023-05-16T23:23:03.542Z,453.63
2023-05-16T23:25:31.969Z,547.38
2023-05-16T23:28:00.336Z,561.03
2023-05-16T23:30:28.797Z,472.58
2023-05-16T23:32:57.223Z,511.00
2023-05-16T23:35:25.982Z,366.63
2023-05-16T23:37:54.962Z,438.88
2023-05-16T23:40:24.691Z,411.42
2023-05-16T23:42:53.068Z,462.35
2023-05-16T23:45:21.741Z,448.23
2023-05-16T23:47:50.222Z,493.73
2023-05-16T23:50:18.742Z,448.23
2023-05-16T23:52:47.125Z,482.15
2023-05-16T23:55:15.981Z,439.30
2023-05-16T23:57:45.764Z,463.92
